Time;durP1;ratioP1;P1;durP2;ratioP2;P2;SDS_P1;SDS_P2;PMS_P1;PMS_P2;Temp;Humidity;BMP_temperature;BMP_pressure;BME280_temperature;BME280_humidity;BME280_pressure;Samples;Min_cycle;Max_cycle;Signal;HPM_P1;HPM_P2
2022/01/04 00:02:05;;;;;;;14.73;11.02;;;10.60;85.50;;;;;;5034359;28;20029;-75
2022/01/04 00:04:31;;;;;;;14.18;10.48;;;10.50;85.50;;;;;;5045460;28;20124;-75
2022/01/04 00:06:57;;;;;;;12.55;11.05;;;10.50;85.50;;;;;;5042179;28;20040;-75
2022/01/04 00:09:23;;;;;;;14.43;11.38;;;10.50;85.60;;;;;;5048496;28;20499;-75
2022/01/04 00:14:18;;;;;;;12.10;10.82;;;10.40;85.60;;;;;;5050813;28;20029;-75
2022/01/04 00:16:44;;;;;;;15.10;11.10;;;10.40;85.70;;;;;;5046292;28;20116;-74
2022/01/04 00:19:10;;;;;;;14.30;11.20;;;10.40;85.80;;;;;;5047221;28;20096;-74
2022/01/04 00:21:37;;;;;;;14.45;10.80;;;10.40;85.80;;;;;;5067309;28;20029;-74
2022/01/04 00:24:03;;;;;;;12.88;11.52;;;10.40;85.80;;;;;;5048160;28;20087;-74
2022/01/04 00:26:29;;;;;;;17.52;11.30;;;10.40;85.90;;;;;;5041731;28;20136;-75
2022/01/04 00:28:55;;;;;;;15.60;11.10;;;10.40;85.90;;;;;;5047135;28;20028;-75
2022/01/04 00:31:21;;;;;;;11.23;9.88;;;10.30;85.90;;;;;;5032379;28;20171;-75
2022/01/04 00:33:47;;;;;;;10.45;9.07;;;10.30;86.00;;;;;;5047651;28;20044;-75
2022/01/04 00:36:12;;;;;;;13.70;9.20;;;10.40;86.10;;;;;;5047526;28;20049;-76
2022/01/04 00:38:38;;;;;;;12.30;9.88;;;10.40;86.10;;;;;;5032315;28;20104;-75
2022/01/04 00:41:04;;;;;;;12.75;10.75;;;10.40;86.00;;;;;;5036906;28;20034;-76
2022/01/04 00:43:30;;;;;;;12.65;9.57;;;10.40;86.00;;;;;;5051214;28;20086;-75
2022/01/04 00:45:55;;;;;;;12.85;9.13;;;10.40;85.90;;;;;;5049807;28;20041;-75
2022/01/04 00:50:47;;;;;;;13.93;9.63;;;10.40;86.00;;;;;;5036940;28;20140;-75
2022/01/04 00:53:13;;;;;;;14.35;9.85;;;10.40;85.90;;;;;;5043368;28;20240;-75
2022/01/04 00:55:40;;;;;;;15.73;10.73;;;10.40;85.90;;;;;;5053417;28;20458;-76
2022/01/04 00:58:06;;;;;;;12.65;9.45;;;10.40;86.00;;;;;;5046353;28;20120;-76
2022/01/04 01:00:32;;;;;;;14.63;10.00;;;10.40;85.90;;;;;;5045308;28;20212;-76
2022/01/04 01:02:58;;;;;;;12.43;9.93;;;10.40;85.90;;;;;;5050466;28;20057;-76
2022/01/04 01:05:26;;;;;;;14.02;9.77;;;10.40;85.70;;;;;;5030380;28;20048;-76
2022/01/04 01:07:53;;;;;;;12.40;8.63;;;10.40;85.70;;;;;;5040529;28;20037;-76
2022/01/04 01:13:04;;;;;;;14.27;10.10;;;10.40;85.70;;;;;;5048671;28;20591;-75
2022/01/04 01:15:30;;;;;;;12.65;10.45;;;10.40;85.60;;;;;;5046826;28;20111;-76
2022/01/04 01:17:55;;;;;;;14.35;10.45;;;10.40;85.60;;;;;;5041043;28;20407;-75
2022/01/04 01:20:21;;;;;;;11.95;10.18;;;10.40;85.60;;;;;;5049794;28;20132;-74
2022/01/04 01:22:47;;;;;;;12.25;10.20;;;10.40;86.20;;;;;;5041524;28;20029;-75
2022/01/04 01:25:14;;;;;;;15.60;10.90;;;10.40;85.70;;;;;;5039152;28;20126;-75
2022/01/04 01:27:41;;;;;;;13.73;10.07;;;10.30;85.70;;;;;;5039571;28;20076;-75
2022/01/04 01:30:08;;;;;;;15.05;10.82;;;10.40;85.80;;;;;;5050077;28;20057;-75
2022/01/04 01:32:34;;;;;;;13.32;10.80;;;10.40;85.70;;;;;;5042481;28;20461;-75
2022/01/04 01:35:00;;;;;;;13.35;10.75;;;10.40;85.70;;;;;;5030369;28;20128;-76
2022/01/04 01:37:25;;;;;;;12.98;11.25;;;10.40;85.60;;;;;;5044167;28;20128;-76
2022/01/04 01:39:51;;;;;;;12.07;10.52;;;10.40;85.60;;;;;;5046537;28;20080;-76
2022/01/04 01:42:17;;;;;;;13.00;10.85;;;10.40;85.60;;;;;;5048042;28;20033;-76
2022/01/04 01:44:42;;;;;;;13.52;10.40;;;10.40;85.60;;;;;;5037454;28;20506;-76
2022/01/04 01:47:08;;;;;;;15.32;11.23;;;10.40;85.60;;;;;;5049658;28;20053;-76
2022/01/04 01:49:34;;;;;;;14.65;11.63;;;10.30;85.50;;;;;;5036571;28;20036;-76
2022/01/04 01:52:00;;;;;;;15.77;11.18;;;10.30;85.60;;;;;;5044265;28;20043;-76
2022/01/04 01:54:27;;;;;;;13.15;10.73;;;10.30;85.60;;;;;;5035025;28;20111;-76
2022/01/04 01:56:54;;;;;;;12.75;10.57;;;10.30;85.70;;;;;;5038046;28;20029;-76
2022/01/04 01:59:20;;;;;;;17.73;11.40;;;10.40;85.70;;;;;;5042367;28;20456;-76
2022/01/04 02:01:46;;;;;;;14.73;10.77;;;10.40;85.60;;;;;;5042673;28;20103;-75
2022/01/04 02:04:12;;;;;;;12.90;10.60;;;10.40;85.50;;;;;;5047342;28;20379;-76
2022/01/04 02:06:38;;;;;;;13.73;10.48;;;10.40;85.50;;;;;;5040270;28;20029;-76
2022/01/04 02:09:04;;;;;;;15.55;11.63;;;10.40;85.40;;;;;;5036758;28;20084;-76
2022/01/04 02:11:31;;;;;;;14.77;11.35;;;10.40;85.40;;;;;;5044114;28;20034;-76
2022/01/04 02:13:58;;;;;;;15.82;11.52;;;10.40;85.30;;;;;;5040104;28;20096;-76
2022/01/04 02:16:29;;;;;;;17.92;12.73;;;10.40;85.20;;;;;;5039351;28;20361;-76
2022/01/04 02:19:01;;;;;;;18.92;12.20;;;10.40;85.10;;;;;;5038985;28;20443;-76
2022/01/04 02:21:26;;;;;;;14.07;10.82;;;10.40;85.20;;;;;;5038848;28;20029;-76
2022/01/04 02:23:52;;;;;;;12.57;11.20;;;10.40;85.20;;;;;;5049161;28;20027;-76
2022/01/04 02:26:18;;;;;;;17.05;12.25;;;10.40;85.30;;;;;;5049321;28;20469;-76
2022/01/04 02:28:46;;;;;;;14.75;12.68;;;10.40;85.20;;;;;;5041168;28;20079;-76
2022/01/04 02:31:12;;;;;;;15.70;11.77;;;10.40;85.30;;;;;;5043271;28;20036;-75
2022/01/04 02:33:37;;;;;;;15.30;12.90;;;10.30;85.30;;;;;;5037452;28;20029;-75
2022/01/04 02:36:04;;;;;;;15.90;12.75;;;10.30;85.20;;;;;;5047067;28;20068;-75
2022/01/04 02:38:29;;;;;;;12.35;11.10;;;10.30;85.30;;;;;;5036443;28;20033;-75
2022/01/04 02:40:55;;;;;;;15.50;12.65;;;10.30;85.30;;;;;;5036303;28;20029;-75
2022/01/04 02:43:21;;;;;;;14.98;12.70;;;10.30;85.30;;;;;;5031790;28;20041;-75
2022/01/04 02:45:46;;;;;;;19.35;13.80;;;10.30;85.30;;;;;;5045080;28;20033;-75
2022/01/04 02:48:12;;;;;;;14.23;12.75;;;10.30;85.20;;;;;;5052802;28;20029;-75
2022/01/04 02:50:38;;;;;;;19.45;12.82;;;10.20;85.30;;;;;;5043039;28;20037;-76
2022/01/04 02:53:03;;;;;;;14.13;11.93;;;10.20;85.30;;;;;;5045804;28;20482;-76
2022/01/04 02:55:29;;;;;;;15.75;12.75;;;10.20;85.40;;;;;;5044646;28;20041;-76
2022/01/04 02:57:55;;;;;;;13.00;11.70;;;10.20;85.40;;;;;;5038043;28;20037;-76
2022/01/04 03:00:23;;;;;;;15.63;12.27;;;10.20;85.40;;;;;;5039815;28;20044;-76
2022/01/04 03:02:49;;;;;;;12.25;10.40;;;10.10;85.30;;;;;;5048067;28;20551;-76
2022/01/04 03:05:14;;;;;;;14.93;11.43;;;10.20;85.40;;;;;;5039381;28;20101;-76
2022/01/04 03:07:40;;;;;;;17.70;11.95;;;10.20;85.40;;;;;;5043743;28;20432;-76
2022/01/04 03:10:07;;;;;;;14.23;11.95;;;10.20;85.30;;;;;;5049968;28;20472;-76
2022/01/04 03:12:34;;;;;;;17.33;13.45;;;10.20;85.20;;;;;;5047150;28;20043;-76
2022/01/04 03:15:00;;;;;;;15.85;12.45;;;10.10;85.10;;;;;;5050715;28;20048;-76
2022/01/04 03:17:26;;;;;;;13.25;11.85;;;10.10;85.10;;;;;;5051598;28;20442;-75
2022/01/04 03:19:51;;;;;;;13.75;10.85;;;10.10;85.20;;;;;;5050187;28;20381;-75
2022/01/04 03:22:17;;;;;;;15.98;10.93;;;10.10;85.40;;;;;;5040444;28;20025;-75
2022/01/04 03:24:43;;;;;;;13.77;11.43;;;10.10;85.30;;;;;;5048908;28;20025;-76
2022/01/04 03:27:09;;;;;;;11.55;10.32;;;10.10;85.90;;;;;;5050393;28;20122;-75
2022/01/04 03:29:34;;;;;;;12.15;10.60;;;10.10;85.30;;;;;;5047675;28;20068;-75
2022/01/04 03:32:00;;;;;;;13.15;11.68;;;10.10;85.30;;;;;;5041877;28;20032;-75
2022/01/04 03:34:26;;;;;;;14.43;10.77;;;10.10;85.20;;;;;;5033815;28;20091;-76
2022/01/04 03:36:52;;;;;;;13.85;11.07;;;10.00;85.30;;;;;;5043305;28;20079;-74
2022/01/04 03:39:17;;;;;;;16.75;10.70;;;10.00;85.30;;;;;;5049548;28;20051;-74
2022/01/04 03:41:45;;;;;;;11.80;10.43;;;10.00;85.30;;;;;;5051846;28;20029;-74
2022/01/04 03:44:20;;;;;;;15.35;11.20;;;10.00;85.40;;;;;;5049591;28;20100;-74
2022/01/04 03:46:54;;;;;;;14.80;11.23;;;10.00;85.40;;;;;;5041023;28;20033;-73
2022/01/04 03:49:19;;;;;;;14.50;11.73;;;10.00;85.30;;;;;;5038534;28;20048;-74
2022/01/04 03:51:45;;;;;;;14.07;11.85;;;10.00;85.30;;;;;;5051517;28;20045;-74
2022/01/04 03:54:11;;;;;;;12.48;11.20;;;10.00;85.20;;;;;;5039790;28;20032;-74
2022/01/04 03:56:37;;;;;;;13.73;10.18;;;10.00;85.20;;;;;;5045472;28;20087;-73
2022/01/04 03:59:03;;;;;;;14.48;11.63;;;10.00;85.30;;;;;;5032532;28;20033;-73
2022/01/04 04:01:29;;;;;;;13.30;11.15;;;10.00;85.40;;;;;;5049400;28;20029;-73
2022/01/04 04:03:55;;;;;;;13.75;11.15;;;10.00;85.30;;;;;;5041002;28;20058;-73
2022/01/04 04:06:21;;;;;;;15.35;12.38;;;10.00;85.30;;;;;;5048261;28;20068;-73
2022/01/04 04:08:47;;;;;;;15.75;12.65;;;10.00;85.10;;;;;;5042815;28;20041;-73
2022/01/04 04:11:13;;;;;;;15.80;12.48;;;10.00;85.10;;;;;;5062815;28;20025;-75
2022/01/04 04:13:39;;;;;;;15.25;12.88;;;10.00;85.20;;;;;;5043294;28;20215;-75
2022/01/04 04:16:05;;;;;;;14.00;12.60;;;10.00;85.20;;;;;;5041395;28;20029;-75
2022/01/04 04:18:30;;;;;;;17.55;13.20;;;10.00;85.30;;;;;;5042408;28;20022;-74
2022/01/04 04:20:56;;;;;;;15.27;12.82;;;9.90;85.30;;;;;;5046037;28;20040;-74
2022/01/04 04:23:22;;;;;;;16.27;14.07;;;9.90;85.30;;;;;;5045191;28;20095;-74
2022/01/04 04:25:48;;;;;;;15.30;12.68;;;9.90;85.40;;;;;;5045593;28;20372;-74
2022/01/04 04:28:14;;;;;;;14.18;12.68;;;9.90;85.40;;;;;;5038595;28;20029;-74
2022/01/04 04:30:39;;;;;;;16.63;13.10;;;9.90;85.40;;;;;;5040411;28;20046;-74
2022/01/04 04:33:05;;;;;;;18.08;13.95;;;9.90;85.30;;;;;;5036813;28;20033;-74
2022/01/04 04:35:31;;;;;;;14.77;12.50;;;9.90;85.30;;;;;;5045964;28;20033;-74
2022/01/04 04:38:01;;;;;;;18.08;13.30;;;9.90;85.30;;;;;;5037570;28;20103;-74
2022/01/04 04:40:27;;;;;;;16.25;12.73;;;9.90;85.40;;;;;;5043393;28;20040;-74
2022/01/04 04:42:53;;;;;;;16.02;13.00;;;9.90;85.40;;;;;;5048873;28;20391;-74
2022/01/04 04:45:19;;;;;;;15.07;12.65;;;9.90;85.40;;;;;;5047575;28;20025;-74
2022/01/04 04:47:45;;;;;;;17.05;13.98;;;9.90;85.50;;;;;;5040541;28;20468;-72
2022/01/04 04:50:10;;;;;;;14.55;13.00;;;9.80;85.50;;;;;;5052113;28;20037;-71
2022/01/04 04:52:36;;;;;;;15.23;12.70;;;9.90;85.40;;;;;;5052592;28;20029;-73
2022/01/04 04:55:07;;;;;;;20.17;13.90;;;9.90;85.40;;;;;;5053690;28;20044;-73
2022/01/04 04:57:32;;;;;;;17.63;14.10;;;9.90;85.40;;;;;;5053348;28;20025;-73
2022/01/04 04:59:58;;;;;;;22.20;15.05;;;9.90;85.30;;;;;;5052165;28;20029;-73
2022/01/04 05:02:24;;;;;;;18.23;14.45;;;9.90;85.30;;;;;;5067632;28;20385;-72
2022/01/04 05:04:50;;;;;;;17.92;14.10;;;9.80;85.50;;;;;;5044626;28;20057;-72
2022/01/04 05:07:15;;;;;;;15.13;13.52;;;9.80;85.50;;;;;;5040503;28;20479;-72
2022/01/04 05:09:41;;;;;;;17.27;14.73;;;9.80;85.60;;;;;;5050948;28;20142;-72
2022/01/04 05:12:08;;;;;;;18.92;14.32;;;9.80;85.50;;;;;;5053204;28;20021;-72
2022/01/04 05:14:33;;;;;;;16.73;14.27;;;9.80;85.40;;;;;;5052387;28;20628;-74
2022/01/04 05:16:59;;;;;;;16.20;13.15;;;9.80;85.50;;;;;;5052094;28;20100;-74
2022/01/04 05:19:25;;;;;;;16.00;13.43;;;9.80;85.50;;;;;;5044886;28;20032;-74
2022/01/04 05:21:50;;;;;;;13.88;12.10;;;9.80;85.50;;;;;;5044982;28;20037;-74
2022/01/04 05:24:20;;;;;;;16.38;14.60;;;9.90;85.50;;;;;;5051062;28;20547;-74
2022/01/04 05:26:53;;;;;;;17.83;14.35;;;9.90;85.40;;;;;;5020999;28;20126;-74
2022/01/04 05:29:20;;;;;;;;;;;9.80;85.30;;;;;;5035281;28;20060;-74
2022/01/04 05:31:46;;;;;;;16.52;14.80;;;9.90;85.30;;;;;;5037105;28;20003;-74
2022/01/04 05:34:11;;;;;;;17.15;15.32;;;9.80;85.20;;;;;;5058237;28;20028;-74
2022/01/04 05:36:37;;;;;;;19.67;14.82;;;9.80;85.30;;;;;;5050629;28;20044;-73
2022/01/04 05:39:03;;;;;;;16.60;13.77;;;9.80;85.40;;;;;;5050106;28;20358;-74
2022/01/04 05:41:29;;;;;;;15.95;13.57;;;9.80;85.40;;;;;;5051113;28;20083;-72
2022/01/04 05:43:55;;;;;;;16.20;14.57;;;9.80;85.40;;;;;;5054547;28;20255;-74
2022/01/04 05:46:21;;;;;;;17.73;13.82;;;9.80;85.30;;;;;;5055566;28;20051;-75
2022/01/04 05:48:46;;;;;;;19.35;15.35;;;9.80;85.30;;;;;;5062251;28;20025;-75
2022/01/04 05:51:12;;;;;;;15.77;14.05;;;9.80;85.20;;;;;;5050667;28;20028;-75
2022/01/04 05:53:38;;;;;;;14.40;12.60;;;9.80;85.20;;;;;;5052905;28;20033;-74
2022/01/04 05:56:04;;;;;;;14.50;13.00;;;9.80;85.30;;;;;;5054310;28;20121;-74
2022/01/04 05:58:30;;;;;;;17.17;14.23;;;9.80;85.30;;;;;;5028838;28;20095;-74
2022/01/04 06:00:55;;;;;;;18.58;14.95;;;9.80;85.20;;;;;;5048618;28;20029;-74
2022/01/04 06:03:21;;;;;;;18.50;13.95;;;9.80;85.20;;;;;;5037747;28;20064;-74
2022/01/04 06:05:47;;;;;;;16.45;14.13;;;9.70;85.20;;;;;;5041354;28;20120;-74
2022/01/04 06:08:13;;;;;;;20.15;15.45;;;9.70;85.40;;;;;;5028930;28;20022;-74
2022/01/04 06:10:41;;;;;;;20.40;14.85;;;9.70;85.50;;;;;;5047524;28;20045;-74
2022/01/04 06:15:33;;;;;;;18.10;14.77;;;9.60;85.60;;;;;;5045157;28;20033;-75
2022/01/04 06:17:59;;;;;;;16.75;13.98;;;9.70;85.80;;;;;;5035027;28;20057;-75
2022/01/04 06:20:25;;;;;;;18.20;14.30;;;9.60;85.80;;;;;;5035056;28;20037;-74
2022/01/04 06:22:52;;;;;;;17.20;13.20;;;9.70;85.80;;;;;;5052004;28;20025;-74
2022/01/04 06:25:19;;;;;;;18.05;14.95;;;9.70;85.80;;;;;;5050040;28;20112;-72
2022/01/04 06:27:48;;;;;;;19.52;12.95;;;9.70;85.80;;;;;;5049023;28;20049;-74
2022/01/04 06:30:15;;;;;;;16.85;14.35;;;9.60;85.90;;;;;;5040165;28;20021;-74
2022/01/04 06:32:43;;;;;;;16.90;13.98;;;9.60;85.90;;;;;;5033923;28;20025;-73
2022/01/04 06:35:09;;;;;;;22.85;15.75;;;9.60;86.00;;;;;;5048811;28;20060;-74
2022/01/04 06:37:34;;;;;;;20.80;15.07;;;9.60;85.80;;;;;;5038798;28;20061;-74
2022/01/04 06:40:00;;;;;;;18.70;14.38;;;9.60;85.80;;;;;;5040807;28;20075;-74
2022/01/04 06:42:26;;;;;;;20.20;14.27;;;9.60;86.00;;;;;;5046580;28;20595;-74
2022/01/04 06:44:53;;;;;;;17.83;14.18;;;9.60;85.90;;;;;;5049582;28;20033;-74
2022/01/04 06:47:18;;;;;;;22.58;15.45;;;9.70;86.00;;;;;;5040868;28;20025;-74
2022/01/04 06:49:44;;;;;;;18.23;15.13;;;9.70;86.00;;;;;;5049062;28;20025;-74
2022/01/04 06:52:10;;;;;;;21.40;16.60;;;9.70;85.90;;;;;;5047711;28;20025;-74
2022/01/04 06:54:36;;;;;;;22.38;16.33;;;9.70;85.80;;;;;;5034876;28;20037;-74
2022/01/04 06:57:03;;;;;;;21.05;16.45;;;9.70;85.80;;;;;;5047466;28;20051;-73
2022/01/04 06:59:29;;;;;;;21.08;15.43;;;9.60;85.80;;;;;;5049509;28;20119;-73
2022/01/04 07:01:55;;;;;;;22.25;16.63;;;9.60;85.90;;;;;;5048775;28;20152;-74
2022/01/04 07:04:21;;;;;;;20.75;16.85;;;9.60;85.90;;;;;;5045979;28;20049;-74
2022/01/04 07:06:47;;;;;;;21.50;16.55;;;9.60;86.00;;;;;;5031461;28;20051;-74
2022/01/04 07:09:12;;;;;;;20.73;17.00;;;9.60;86.10;;;;;;5048194;28;20040;-74
2022/01/04 07:11:38;;;;;;;23.13;15.75;;;9.60;86.10;;;;;;5031704;28;20033;-74
2022/01/04 07:14:04;;;;;;;29.65;18.10;;;9.60;86.20;;;;;;5047938;28;20025;-74
2022/01/04 07:16:30;;;;;;;23.92;18.73;;;9.60;86.20;;;;;;5047683;28;20033;-74
2022/01/04 07:18:56;;;;;;;27.90;18.42;;;9.50;86.20;;;;;;5040910;28;20108;-73
2022/01/04 07:21:22;;;;;;;23.77;17.25;;;9.50;86.30;;;;;;5041742;28;20388;-73
2022/01/04 07:23:48;;;;;;;22.40;17.58;;;9.50;86.40;;;;;;5037631;28;20036;-73
2022/01/04 07:26:16;;;;;;;24.38;17.98;;;9.50;86.40;;;;;;5052503;28;20548;-73
2022/01/04 07:28:43;;;;;;;23.65;17.33;;;9.50;86.40;;;;;;5041230;28;20040;-74
2022/01/04 07:31:09;;;;;;;24.30;18.75;;;9.50;86.50;;;;;;5046752;28;20875;-74
2022/01/04 07:33:35;;;;;;;25.55;17.83;;;9.40;86.60;;;;;;5047325;28;20030;-74
2022/01/04 07:36:01;;;;;;;19.67;16.73;;;9.50;86.70;;;;;;5046311;28;20551;-73
2022/01/04 07:38:27;;;;;;;21.55;17.48;;;9.50;86.70;;;;;;5052636;28;20037;-74
2022/01/04 07:40:53;;;;;;;21.35;17.67;;;9.50;86.80;;;;;;5044004;28;20037;-72
2022/01/04 07:43:19;;;;;;;22.30;17.15;;;9.50;86.70;;;;;;5049128;28;20032;-72
2022/01/04 07:45:45;;;;;;;23.70;18.38;;;9.50;86.70;;;;;;5041102;28;20047;-72
2022/01/04 07:48:10;;;;;;;24.10;18.20;;;9.50;86.70;;;;;;5051756;28;20061;-72
2022/01/04 07:50:40;;;;;;;24.30;17.25;;;9.60;86.70;;;;;;5033364;28;20074;-72
2022/01/04 07:53:07;;;;;;;27.25;20.67;;;9.60;86.70;;;;;;5052301;28;20044;-72
2022/01/04 07:55:33;;;;;;;26.20;19.00;;;9.60;86.60;;;;;;5048838;28;20410;-72
2022/01/04 07:57:59;;;;;;;23.58;17.80;;;9.60;86.70;;;;;;5030977;28;20055;-72
2022/01/04 08:00:25;;;;;;;21.58;17.42;;;9.50;86.70;;;;;;5043119;28;20090;-72
2022/01/04 08:02:52;;;;;;;23.77;17.75;;;9.50;86.70;;;;;;5057400;28;20033;-71
2022/01/04 08:05:18;;;;;;;25.30;19.42;;;9.50;86.70;;;;;;5050065;28;20020;-72
2022/01/04 08:07:44;;;;;;;23.60;18.50;;;9.50;86.80;;;;;;5039730;28;20045;-72
2022/01/04 08:10:10;;;;;;;27.05;19.27;;;9.50;86.90;;;;;;5050923;28;20055;-72
2022/01/04 08:12:36;;;;;;;26.20;18.95;;;9.40;86.90;;;;;;5041885;28;20049;-72
2022/01/04 08:15:04;;;;;;;24.42;18.00;;;9.50;87.00;;;;;;5046202;28;20538;-71
2022/01/04 08:17:30;;;;;;;25.85;19.20;;;9.40;87.10;;;;;;5045213;28;20059;-71
2022/01/04 08:19:56;;;;;;;26.10;19.92;;;9.50;87.10;;;;;;5050719;28;20353;-71
2022/01/04 08:22:22;;;;;;;27.90;20.80;;;9.50;87.20;;;;;;5045321;28;20060;-71
2022/01/04 08:24:47;;;;;;;25.20;19.10;;;9.50;87.10;;;;;;5040284;28;20491;-71
2022/01/04 08:27:13;;;;;;;27.52;20.30;;;9.50;87.20;;;;;;5045614;28;20099;-72
2022/01/04 08:29:39;;;;;;;25.38;20.52;;;9.50;87.30;;;;;;5043118;28;20418;-71
2022/01/04 08:32:05;;;;;;;27.27;20.70;;;9.40;87.30;;;;;;5046219;28;20029;-71
2022/01/04 08:34:30;;;;;;;27.35;20.33;;;9.50;88.00;;;;;;5051479;28;20029;-71
2022/01/04 08:36:56;;;;;;;25.02;19.33;;;9.40;87.40;;;;;;5044846;28;20132;-72
2022/01/04 08:39:26;;;;;;;28.52;19.77;;;9.40;87.50;;;;;;5051517;28;20040;-72
2022/01/04 08:41:55;;;;;;;29.10;20.92;;;9.40;87.50;;;;;;5040955;28;20036;-72
2022/01/04 08:44:23;;;;;;;31.50;21.45;;;9.40;87.50;;;;;;5048178;28;20397;-72
2022/01/04 08:46:50;;;;;;;26.38;19.98;;;9.40;87.50;;;;;;5041416;28;20033;-72
2022/01/04 08:49:16;;;;;;;32.35;21.67;;;9.40;87.50;;;;;;5041776;28;20040;-71
2022/01/04 08:51:42;;;;;;;30.30;21.30;;;9.50;87.50;;;;;;5048848;28;20582;-71
2022/01/04 08:54:08;;;;;;;26.83;20.20;;;9.40;87.50;;;;;;5039217;28;20028;-72
2022/01/04 08:56:34;;;;;;;25.95;20.25;;;9.50;87.50;;;;;;5042547;28;20033;-71
2022/01/04 08:58:59;;;;;;;28.60;19.98;;;9.50;87.60;;;;;;5039280;28;20025;-72
2022/01/04 09:01:25;;;;;;;32.38;22.70;;;9.50;87.40;;;;;;5036372;28;20041;-72
2022/01/04 09:03:51;;;;;;;31.42;20.88;;;9.50;87.40;;;;;;5029902;28;20626;-71
2022/01/04 09:06:19;;;;;;;29.75;21.52;;;9.50;87.50;;;;;;5043536;28;20476;-72
2022/01/04 09:08:46;;;;;;;34.30;22.00;;;9.40;87.60;;;;;;5049795;28;20600;-72
2022/01/04 09:11:11;;;;;;;28.58;20.75;;;9.40;87.60;;;;;;5048014;28;20571;-72
2022/01/04 09:13:42;;;;;;;26.38;20.92;;;9.40;87.70;;;;;;5041551;28;20119;-71
2022/01/04 09:18:46;;;;;;;30.42;20.65;;;9.50;87.80;;;;;;5040771;28;20056;-72
2022/01/04 09:21:24;;;;;;;31.15;21.08;;;9.50;87.60;;;;;;5038939;28;20617;-71
2022/01/04 09:23:51;;;;;;;31.52;21.52;;;9.50;87.70;;;;;;5048141;28;20036;-71
2022/01/04 09:26:18;;;;;;;34.20;22.30;;;9.50;87.60;;;;;;5038313;28;20033;-71
2022/01/04 09:28:44;;;;;;;34.33;23.70;;;9.50;87.80;;;;;;5041788;28;20033;-71
2022/01/04 09:31:11;;;;;;;28.65;20.65;;;9.50;87.90;;;;;;5048938;28;20185;-71
2022/01/04 09:33:38;;;;;;;29.40;19.13;;;9.50;88.00;;;;;;5043824;28;20045;-71
2022/01/04 09:36:05;;;;;;;37.35;22.88;;;9.50;88.00;;;;;;5047008;28;20033;-71
2022/01/04 09:38:31;;;;;;;32.17;22.83;;;9.50;88.20;;;;;;5036588;28;20036;-72
2022/01/04 09:40:57;;;;;;;34.72;23.00;;;9.40;88.40;;;;;;5034431;28;20124;-71
2022/01/04 09:43:24;;;;;;;36.95;23.27;;;9.40;88.50;;;;;;5043993;28;20123;-71
2022/01/04 09:45:51;;;;;;;34.92;22.52;;;9.40;88.60;;;;;;5059690;28;20025;-72
2022/01/04 09:48:19;;;;;;;29.38;19.40;;;9.40;88.70;;;;;;5037605;28;20021;-71
2022/01/04 09:50:46;;;;;;;25.52;19.52;;;9.40;88.70;;;;;;5042189;28;20662;-71
2022/01/04 09:53:20;;;;;;;34.75;22.35;;;9.40;88.80;;;;;;5046404;28;20028;-72
2022/01/04 09:55:55;;;;;;;27.80;20.38;;;9.40;88.80;;;;;;5031557;28;20038;-71
2022/01/04 09:58:22;;;;;;;29.13;20.38;;;9.30;88.80;;;;;;5042236;28;20071;-71
2022/01/04 10:00:50;;;;;;;27.58;18.55;;;9.30;88.80;;;;;;5035023;28;20040;-74
2022/01/04 10:03:19;;;;;;;24.80;18.05;;;9.30;88.90;;;;;;5039299;28;20391;-74
2022/01/04 10:05:45;;;;;;;24.58;17.70;;;9.30;88.90;;;;;;5043834;28;20095;-74
2022/01/04 10:08:13;;;;;;;22.08;17.35;;;9.30;88.90;;;;;;5041229;28;20483;-71
2022/01/04 10:10:40;;;;;;;20.63;15.63;;;9.40;88.80;;;;;;5044568;28;20438;-71
2022/01/04 10:13:10;;;;;;;14.68;11.52;;;9.40;88.50;;;;;;5033099;28;20040;-71
2022/01/04 10:15:53;;;;;;;13.68;10.30;;;9.40;87.40;;;;;;5048534;28;20013;-71
2022/01/04 10:18:25;;;;;;;12.50;8.70;;;9.40;87.20;;;;;;5045516;28;20025;-71
2022/01/04 10:21:02;;;;;;;10.85;7.63;;;9.30;86.90;;;;;;5037215;28;20570;-71
2022/01/04 10:23:29;;;;;;;9.02;6.72;;;9.30;86.20;;;;;;5034998;28;20033;-71
2022/01/04 10:26:08;;;;;;;8.77;6.80;;;9.30;85.90;;;;;;5032789;28;20431;-71
2022/01/04 10:28:35;;;;;;;9.77;6.63;;;9.30;85.70;;;;;;5038245;28;20418;-71
2022/01/04 10:31:03;;;;;;;10.63;6.97;;;9.30;85.40;;;;;;5037855;28;20056;-71
2022/01/04 10:33:31;;;;;;;11.55;7.97;;;9.30;85.50;;;;;;5046124;28;20079;-71
2022/01/04 10:35:58;;;;;;;9.55;7.72;;;9.30;85.40;;;;;;5039391;28;20544;-71
2022/01/04 10:38:35;;;;;;;9.68;7.47;;;9.20;85.50;;;;;;5034275;28;20034;-71
2022/01/04 10:41:03;;;;;;;11.38;7.90;;;9.20;85.70;;;;;;5050781;28;20078;-71
2022/01/04 10:43:40;;;;;;;11.27;7.50;;;9.20;85.80;;;;;;5055274;28;20037;-71
2022/01/04 10:46:07;;;;;;;10.38;7.28;;;9.20;86.10;;;;;;5051269;28;20037;-71
2022/01/04 10:48:44;;;;;;;10.27;8.13;;;9.20;86.10;;;;;;5044715;28;20416;-71
2022/01/04 10:51:11;;;;;;;10.30;7.85;;;9.20;86.20;;;;;;5043125;28;20029;-71
2022/01/04 10:53:57;;;;;;;10.95;8.40;;;9.20;86.20;;;;;;5037248;28;20032;-71
2022/01/04 10:56:34;;;;;;;13.18;9.07;;;9.30;86.30;;;;;;5048366;28;20400;-71
2022/01/04 10:59:03;;;;;;;9.85;8.00;;;9.20;86.30;;;;;;5034047;28;20030;-72
2022/01/04 11:01:37;;;;;;;12.20;9.07;;;9.30;86.50;;;;;;5034155;28;20033;-71
2022/01/04 11:04:04;;;;;;;14.27;9.68;;;9.30;86.70;;;;;;5045668;28;20025;-71
2022/01/04 11:06:39;;;;;;;12.50;9.57;;;9.30;86.70;;;;;;5034260;28;20030;-70
2022/01/04 11:09:06;;;;;;;13.82;9.98;;;9.30;86.80;;;;;;5038553;28;20033;-71
2022/01/04 11:11:32;;;;;;;15.85;11.07;;;9.40;87.00;;;;;;5032347;28;20034;-72
2022/01/04 11:13:59;;;;;;;14.02;10.88;;;9.40;87.10;;;;;;5049384;28;20057;-71
2022/01/04 11:16:27;;;;;;;17.67;12.35;;;9.40;87.20;;;;;;5044740;28;20026;-71
2022/01/04 11:18:55;;;;;;;18.25;14.75;;;9.40;87.20;;;;;;5034323;28;20391;-71
2022/01/04 11:21:41;;;;;;;20.80;15.25;;;9.50;87.30;;;;;;5048535;28;20029;-71
2022/01/04 11:24:10;;;;;;;21.70;15.32;;;9.50;87.40;;;;;;5035651;28;20033;-71
2022/01/04 11:26:42;;;;;;;19.95;14.50;;;9.50;87.40;;;;;;5043297;28;20037;-71
2022/01/04 11:29:08;;;;;;;21.10;15.32;;;9.40;87.60;;;;;;5049567;28;20483;-71
2022/01/04 11:32:01;;;;;;;19.27;15.00;;;9.50;87.70;;;;;;5046491;28;20037;-71
2022/01/04 11:34:45;;;;;;;;;;;9.50;88.40;;;;;;5043662;28;20024;-71
2022/01/04 11:37:19;;;;;;;20.95;15.70;;;9.50;87.80;;;;;;5045392;28;19917;-72
2022/01/04 11:39:46;;;;;;;25.40;18.58;;;9.40;88.20;;;;;;5039376;28;20025;-72
2022/01/04 11:42:31;;;;;;;23.63;18.00;;;9.40;88.60;;;;;;5040297;28;20044;-72
2022/01/04 11:44:59;;;;;;;27.48;17.95;;;9.40;89.00;;;;;;5034977;28;20091;-72
2022/01/04 11:47:30;;;;;;;24.45;18.80;;;9.40;89.10;;;;;;5049907;28;20033;-72
2022/01/04 11:50:31;;;;;;;27.70;18.90;;;9.40;89.60;;;;;;5040430;28;20124;-72
2022/01/04 11:52:58;;;;;;;20.48;16.80;;;9.40;89.60;;;;;;5051472;28;20121;-73
2022/01/04 11:55:36;;;;;;;19.40;15.35;;;9.40;89.70;;;;;;5044251;28;20033;-73
2022/01/04 11:58:14;;;;;;;20.15;15.43;;;9.30;89.80;;;;;;5041207;28;20710;-73
2022/01/04 12:00:44;;;;;;;18.30;15.20;;;9.30;89.90;;;;;;5044061;28;20029;-73
2022/01/04 12:03:13;;;;;;;19.00;14.60;;;9.30;89.90;;;;;;5043423;28;20032;-73
2022/01/04 12:05:57;;;;;;;18.17;13.98;;;9.30;90.20;;;;;;5033861;28;20772;-73
2022/01/04 12:08:25;;;;;;;20.33;14.98;;;9.30;90.00;;;;;;5048893;28;20057;-73
2022/01/04 12:10:53;;;;;;;21.70;17.48;;;9.30;90.10;;;;;;5056301;28;20049;-73
2022/01/04 12:13:26;;;;;;;21.45;16.20;;;9.40;90.10;;;;;;5051826;28;20032;-73
2022/01/04 12:15:57;;;;;;;19.75;15.13;;;9.40;90.00;;;;;;5037666;28;20030;-73
2022/01/04 12:18:23;;;;;;;17.90;13.65;;;9.40;90.00;;;;;;5045154;28;20427;-73
2022/01/04 12:21:15;;;;;;;19.52;14.00;;;9.40;90.00;;;;;;5051140;28;20035;-73
2022/01/04 12:23:44;;;;;;;23.10;15.43;;;9.40;90.00;;;;;;5046471;28;20116;-73
2022/01/04 12:26:16;;;;;;;19.70;15.05;;;9.50;90.00;;;;;;5064058;28;20494;-73
2022/01/04 12:28:58;;;;;;;19.83;14.57;;;9.50;89.90;;;;;;5044362;28;20499;-73
2022/01/04 12:31:32;;;;;;;20.17;14.40;;;9.50;89.70;;;;;;5045560;28;20285;-73
2022/01/04 12:34:00;;;;;;;16.27;12.60;;;9.40;89.80;;;;;;5051269;28;20021;-73
2022/01/04 12:36:31;;;;;;;16.73;12.35;;;9.40;89.80;;;;;;5044462;28;20032;-73
2022/01/04 12:38:59;;;;;;;20.88;12.85;;;9.40;89.80;;;;;;5048520;28;20037;-73
2022/01/04 12:41:25;;;;;;;12.85;8.07;;;9.40;89.90;;;;;;5048044;28;20025;-73
2022/01/04 12:43:52;;;;;;;11.55;6.30;;;9.50;89.60;;;;;;5042317;28;20392;-73
2022/01/04 12:46:35;;;;;;;7.20;3.60;;;9.40;89.00;;;;;;5036532;28;20025;-72
2022/01/04 12:49:06;;;;;;;5.10;2.85;;;9.40;88.40;;;;;;5035898;28;20029;-71
2022/01/04 12:51:36;;;;;;;6.03;2.60;;;9.40;88.20;;;;;;5048666;28;20021;-71